createdAt,value
2018-09-14T00:02:01.365Z,11.72
2018-09-14T00:04:30.053Z,11.70
2018-09-14T00:06:58.185Z,11.68
2018-09-14T00:09:26.351Z,11.67
2018-09-14T00:11:54.472Z,11.64
2018-09-14T00:14:22.620Z,11.59
2018-09-14T00:16:50.732Z,11.50
2018-09-14T00:19:19.040Z,11.47
2018-09-14T00:21:47.157Z,11.46
2018-09-14T00:24:15.609Z,11.46
2018-09-14T00:26:43.724Z,11.46
2018-09-14T00:29:11.865Z,11.46
2018-09-14T00:31:40.241Z,11.45
2018-09-14T00:34:08.936Z,11.43
2018-09-14T00:36:37.049Z,11.42
2018-09-14T00:39:07.573Z,11.41
2018-09-14T00:41:36.228Z,11.39
2018-09-14T00:44:04.388Z,11.37
2018-09-14T00:46:32.511Z,11.34
2018-09-14T00:49:00.643Z,11.29
2018-09-14T00:51:28.991Z,11.21
2018-09-14T00:53:57.152Z,11.09
2018-09-14T00:56:25.248Z,10.94
2018-09-14T00:58:53.415Z,10.81
2018-09-14T01:01:21.868Z,10.75
2018-09-14T01:03:50.000Z,10.70
2018-09-14T01:06:18.451Z,10.67
2018-09-14T01:08:46.719Z,10.66
2018-09-14T01:11:15.429Z,10.71
2018-09-14T01:13:43.672Z,10.75
2018-09-14T01:16:12.111Z,10.78
2018-09-14T01:18:40.240Z,10.81
2018-09-14T01:21:08.567Z,10.83
2018-09-14T01:23:36.891Z,10.87
2018-09-14T01:26:05.196Z,10.89
2018-09-14T01:28:33.320Z,10.90
2018-09-14T01:31:01.764Z,10.89
2018-09-14T01:33:30.068Z,10.86
2018-09-14T01:36:03.517Z,10.84
2018-09-14T01:38:31.660Z,10.83
2018-09-14T01:40:59.771Z,10.79
2018-09-14T01:43:28.173Z,10.74
2018-09-14T01:45:56.329Z,10.69
2018-09-14T01:48:24.454Z,10.63
2018-09-14T01:50:52.773Z,10.57
2018-09-14T01:53:21.224Z,10.52
2018-09-14T01:55:49.320Z,10.50
2018-09-14T01:58:17.488Z,10.48
2018-09-14T02:00:45.601Z,10.49
2018-09-14T02:03:13.772Z,10.47
2018-09-14T02:05:42.485Z,10.44
2018-09-14T02:08:11.215Z,10.41
2018-09-14T02:10:39.552Z,10.38
2018-09-14T02:13:07.870Z,10.35
2018-09-14T02:15:36.596Z,10.34
2018-09-14T02:18:05.040Z,10.36
2018-09-14T02:20:33.160Z,10.36
2018-09-14T02:23:01.605Z,10.36
2018-09-14T02:25:30.762Z,10.35
2018-09-14T02:27:59.052Z,10.33
2018-09-14T02:30:27.186Z,10.32
2018-09-14T02:32:55.785Z,10.28
2018-09-14T02:35:23.926Z,10.20
2018-09-14T02:37:52.259Z,10.11
2018-09-14T02:40:20.392Z,10.02
2018-09-14T02:42:48.513Z,9.93
2018-09-14T02:45:16.634Z,9.88
2018-09-14T02:47:45.292Z,9.85
2018-09-14T02:50:13.413Z,9.83
2018-09-14T02:52:41.532Z,9.81
2018-09-14T02:55:09.652Z,9.81
2018-09-14T02:57:37.771Z,9.80
2018-09-14T03:00:06.420Z,9.76
2018-09-14T03:02:34.667Z,9.71
2018-09-14T03:05:02.942Z,9.68
2018-09-14T03:07:31.268Z,9.62
2018-09-14T03:09:59.463Z,9.58
2018-09-14T03:12:27.707Z,9.57
2018-09-14T03:14:56.200Z,9.56
2018-09-14T03:17:24.344Z,9.58
2018-09-14T03:19:52.523Z,9.58
2018-09-14T03:22:20.884Z,9.60
2018-09-14T03:24:49.556Z,9.57
2018-09-14T03:27:18.040Z,9.49
2018-09-14T03:29:46.184Z,9.38
2018-09-14T03:32:14.474Z,9.29
2018-09-14T03:34:42.960Z,9.21
2018-09-14T03:37:11.188Z,9.18
2018-09-14T03:39:39.287Z,9.12
2018-09-14T03:42:07.411Z,9.06
2018-09-14T03:44:35.788Z,8.97
2018-09-14T03:47:04.152Z,8.91
2018-09-14T03:49:32.288Z,8.87
2018-09-14T03:52:00.811Z,8.83
2018-09-14T03:54:28.924Z,8.77
2018-09-14T03:56:57.317Z,8.73
2018-09-14T03:59:25.458Z,8.73
2018-09-14T04:01:53.804Z,8.75
2018-09-14T04:04:21.916Z,8.76
2018-09-14T04:06:50.083Z,8.76
2018-09-14T04:09:18.224Z,8.75
2018-09-14T04:11:46.568Z,8.74
2018-09-14T04:14:14.688Z,8.70
2018-09-14T04:16:42.807Z,8.61
2018-09-14T04:19:11.245Z,8.55
2018-09-14T04:21:39.609Z,8.51
2018-09-14T04:24:08.084Z,8.44
2018-09-14T04:26:36.539Z,8.37
2018-09-14T04:29:05.001Z,8.33
2018-09-14T04:31:33.300Z,8.35
2018-09-14T04:34:01.904Z,8.38
2018-09-14T04:36:30.356Z,8.45
2018-09-14T04:38:58.473Z,8.47
2018-09-14T04:41:26.916Z,8.50
2018-09-14T04:43:55.704Z,8.49
2018-09-14T04:46:24.159Z,8.46
2018-09-14T04:48:52.283Z,8.43
2018-09-14T04:51:20.896Z,8.42
2018-09-14T04:53:49.525Z,8.35
2018-09-14T04:56:17.648Z,8.35
2018-09-14T04:58:45.757Z,8.33
2018-09-14T05:01:14.206Z,8.34
2018-09-14T05:03:42.689Z,8.36
2018-09-14T05:06:10.787Z,8.33
2018-09-14T05:08:40.564Z,8.29
2018-09-14T05:11:08.848Z,8.28
2018-09-14T05:13:37.329Z,8.28
2018-09-14T05:16:05.620Z,8.26
2018-09-14T05:18:33.783Z,8.23
2018-09-14T05:21:02.452Z,8.20
2018-09-14T05:23:30.562Z,8.20
2018-09-14T05:25:58.873Z,8.17
2018-09-14T05:28:27.115Z,8.15
2018-09-14T05:30:55.260Z,8.12
2018-09-14T05:33:23.411Z,8.14
2018-09-14T05:35:52.052Z,8.19
2018-09-14T05:38:20.210Z,8.25
2018-09-14T05:40:49.298Z,8.31
2018-09-14T05:43:17.416Z,8.38
2018-09-14T05:45:45.596Z,8.44
2018-09-14T05:48:13.919Z,8.48
2018-09-14T05:50:42.036Z,8.53
2018-09-14T05:53:10.508Z,8.56
2018-09-14T05:55:38.950Z,8.58
2018-09-14T05:58:07.653Z,8.64
2018-09-14T06:00:36.100Z,8.75
2018-09-14T06:03:04.552Z,8.86
2018-09-14T06:05:32.664Z,8.96
2018-09-14T06:08:00.795Z,9.10
2018-09-14T06:10:29.281Z,9.25
2018-09-14T06:12:57.924Z,9.42
2018-09-14T06:15:26.364Z,9.57
2018-09-14T06:17:54.502Z,9.73
2018-09-14T06:20:22.608Z,9.84
2018-09-14T06:22:51.116Z,10.00
2018-09-14T06:25:19.729Z,10.15
2018-09-14T06:27:48.099Z,10.23
2018-09-14T06:30:16.479Z,10.19
2018-09-14T06:32:45.089Z,10.14
2018-09-14T06:35:13.740Z,10.20
2018-09-14T06:37:42.217Z,10.30
2018-09-14T06:40:10.669Z,10.44
2018-09-14T06:42:38.800Z,10.63
2018-09-14T06:45:07.282Z,10.76
2018-09-14T06:47:35.625Z,10.86
2018-09-14T06:50:04.008Z,11.00
2018-09-14T06:52:32.205Z,11.14
2018-09-14T06:55:00.351Z,11.28
2018-09-14T06:57:28.486Z,11.42
2018-09-14T06:59:57.196Z,11.65
2018-09-14T07:02:25.586Z,11.88
2018-09-14T07:04:54.240Z,12.14
2018-09-14T07:07:22.585Z,12.42
2018-09-14T07:09:50.773Z,12.63
2018-09-14T07:12:18.910Z,12.80
2018-09-14T07:14:47.045Z,12.90
2018-09-14T07:17:15.752Z,13.08
2018-09-14T07:19:44.256Z,13.36
2018-09-14T07:22:12.773Z,13.54
2018-09-14T07:24:41.158Z,13.71
2018-09-14T07:27:10.010Z,13.89
2018-09-14T07:29:38.186Z,14.03
2018-09-14T07:32:06.537Z,14.14
2018-09-14T07:34:34.909Z,14.26
2018-09-14T07:37:03.405Z,14.45
2018-09-14T07:39:31.543Z,14.68
2018-09-14T07:41:59.984Z,15.03
2018-09-14T07:44:28.109Z,15.29
2018-09-14T07:46:56.593Z,15.41
2018-09-14T07:49:24.751Z,15.50
2018-09-14T07:51:53.064Z,15.64
2018-09-14T07:54:21.184Z,15.72
2018-09-14T07:56:49.347Z,15.81
2018-09-14T07:59:18.005Z,15.94
2018-09-14T08:01:46.116Z,16.10
2018-09-14T08:04:14.274Z,16.25
2018-09-14T08:06:42.396Z,16.48
2018-09-14T08:09:12.274Z,16.73
2018-09-14T08:11:41.165Z,16.86
2018-09-14T08:14:10.109Z,16.87
2018-09-14T08:16:38.541Z,16.98
2018-09-14T08:19:07.028Z,17.08
2018-09-14T08:21:35.467Z,17.18
2018-09-14T08:24:03.744Z,17.34
2018-09-14T08:26:31.872Z,17.48
2018-09-14T08:29:00.324Z,17.67
2018-09-14T08:31:28.691Z,17.87
2018-09-14T08:33:57.363Z,17.96
2018-09-14T08:36:25.480Z,17.94
2018-09-14T08:38:53.935Z,18.02
2018-09-14T08:41:22.248Z,18.09
2018-09-14T08:43:50.704Z,18.24
2018-09-14T08:46:18.820Z,18.49
2018-09-14T08:48:47.301Z,18.78
2018-09-14T08:51:15.956Z,19.05
2018-09-14T08:53:44.458Z,19.31
2018-09-14T08:56:12.623Z,19.38
2018-09-14T08:58:41.266Z,19.28
2018-09-14T09:01:09.972Z,19.29
2018-09-14T09:03:38.084Z,19.52
2018-09-14T09:06:06.746Z,19.59
2018-09-14T09:08:35.302Z,19.67
2018-09-14T09:11:03.972Z,19.80
2018-09-14T09:13:32.080Z,19.99
2018-09-14T09:16:00.204Z,20.18
2018-09-14T09:18:28.768Z,20.47
2018-09-14T09:20:57.226Z,20.56
2018-09-14T09:23:25.359Z,20.42
2018-09-14T09:25:53.672Z,20.33
2018-09-14T09:28:21.827Z,20.37
2018-09-14T09:30:50.485Z,20.53
2018-09-14T09:33:18.844Z,20.86
2018-09-14T09:35:47.004Z,21.04
2018-09-14T09:38:15.108Z,21.13
2018-09-14T09:40:43.612Z,21.29
2018-09-14T09:43:12.336Z,21.38
2018-09-14T09:45:40.636Z,21.43
2018-09-14T09:48:10.288Z,21.56
2018-09-14T09:50:39.430Z,21.70
2018-09-14T09:53:08.483Z,21.84
2018-09-14T09:55:37.248Z,22.06
2018-09-14T09:58:05.481Z,22.36
2018-09-14T10:00:38.919Z,22.51
2018-09-14T10:03:12.428Z,22.36
2018-09-14T10:05:46.296Z,22.39
2018-09-14T10:08:14.737Z,22.52
2018-09-14T10:10:43.208Z,22.61
2018-09-14T10:13:11.304Z,22.80
2018-09-14T10:15:39.765Z,22.97
2018-09-14T10:18:08.084Z,23.19
2018-09-14T10:20:36.209Z,23.38
2018-09-14T10:23:04.872Z,23.51
2018-09-14T10:25:33.153Z,23.63
2018-09-14T10:28:01.588Z,23.73
2018-09-14T10:30:29.701Z,23.77
2018-09-14T10:32:57.812Z,23.69
2018-09-14T10:35:26.268Z,23.62
2018-09-14T10:37:54.724Z,23.50
2018-09-14T10:40:23.410Z,23.65
2018-09-14T10:42:52.335Z,23.88
2018-09-14T10:45:21.125Z,23.83
2018-09-14T10:47:49.364Z,23.72
2018-09-14T10:50:17.476Z,23.46
2018-09-14T10:52:46.139Z,23.26
2018-09-14T10:55:14.489Z,23.35
2018-09-14T10:57:42.765Z,23.59
2018-09-14T11:00:11.448Z,24.09
2018-09-14T11:02:39.573Z,24.25
2018-09-14T11:05:08.411Z,24.10
2018-09-14T11:07:36.911Z,23.87
2018-09-14T11:10:05.753Z,23.54
2018-09-14T11:12:34.803Z,23.10
2018-09-14T11:15:04.259Z,22.70
2018-09-14T11:17:32.728Z,22.58
2018-09-14T11:20:00.837Z,22.82
2018-09-14T11:22:28.993Z,23.17
2018-09-14T11:24:57.161Z,23.45
2018-09-14T11:27:26.008Z,23.51
2018-09-14T11:29:54.432Z,23.73
2018-09-14T11:32:22.581Z,24.05
2018-09-14T11:34:50.863Z,24.25
2018-09-14T11:37:19.005Z,24.35
2018-09-14T11:39:47.300Z,24.64
2018-09-14T11:42:15.761Z,24.84
2018-09-14T11:44:44.203Z,24.61
2018-09-14T11:47:12.657Z,24.19
2018-09-14T11:49:40.964Z,23.86
2018-09-14T11:52:09.104Z,23.76
2018-09-14T11:54:37.634Z,23.61
2018-09-14T11:57:06.396Z,23.35
2018-09-14T11:59:35.084Z,23.15
2018-09-14T12:02:03.244Z,22.95
2018-09-14T12:04:31.377Z,23.12
2018-09-14T12:07:00.036Z,23.14
2018-09-14T12:09:28.147Z,23.05
2018-09-14T12:11:56.909Z,22.95
2018-09-14T12:14:25.368Z,22.64
2018-09-14T12:16:53.863Z,22.39
2018-09-14T12:19:21.972Z,22.35
2018-09-14T12:21:50.436Z,22.70
2018-09-14T12:24:18.880Z,22.88
2018-09-14T12:26:47.007Z,22.82
2018-09-14T12:29:15.316Z,22.76
2018-09-14T12:31:43.464Z,22.70
2018-09-14T12:34:11.580Z,22.86
2018-09-14T12:36:40.224Z,23.04
2018-09-14T12:39:09.495Z,23.41
2018-09-14T12:41:37.841Z,23.83
2018-09-14T12:44:06.220Z,23.98
2018-09-14T12:46:34.352Z,23.77
2018-09-14T12:49:03.635Z,23.38
2018-09-14T12:51:32.090Z,23.06
2018-09-14T12:54:00.214Z,23.14
2018-09-14T12:56:28.856Z,23.48
2018-09-14T12:58:56.989Z,23.96
2018-09-14T13:01:25.104Z,24.30
2018-09-14T13:03:53.231Z,24.34
2018-09-14T13:06:21.564Z,24.20
2018-09-14T13:08:50.216Z,24.22
2018-09-14T13:11:18.963Z,24.41
2018-09-14T13:13:47.417Z,24.47
2018-09-14T13:16:15.532Z,24.46
2018-09-14T13:18:44.840Z,24.50
2018-09-14T13:21:13.841Z,24.43
2018-09-14T13:23:41.956Z,24.43
2018-09-14T13:26:10.078Z,24.49
2018-09-14T13:28:38.222Z,24.25
2018-09-14T13:31:07.133Z,24.02
2018-09-14T13:33:35.240Z,23.89
2018-09-14T13:36:04.053Z,23.76
2018-09-14T13:38:32.199Z,23.89
2018-09-14T13:41:00.317Z,24.08
2018-09-14T13:43:28.964Z,23.93
2018-09-14T13:45:57.081Z,23.73
2018-09-14T13:48:25.540Z,23.82
2018-09-14T13:50:53.644Z,24.02
2018-09-14T13:53:21.756Z,24.39
2018-09-14T13:55:49.898Z,24.63
2018-09-14T13:58:18.204Z,24.66
2018-09-14T14:00:46.836Z,24.45
2018-09-14T14:03:14.976Z,24.33
2018-09-14T14:05:43.419Z,24.37
2018-09-14T14:08:11.782Z,24.69
2018-09-14T14:10:39.920Z,24.99
2018-09-14T14:13:08.088Z,25.15
2018-09-14T14:15:36.257Z,25.16
2018-09-14T14:18:04.364Z,25.15
2018-09-14T14:20:32.985Z,25.22
2018-09-14T14:23:01.258Z,25.25
2018-09-14T14:25:29.904Z,25.14
2018-09-14T14:27:58.368Z,24.86
2018-09-14T14:30:26.537Z,24.52
2018-09-14T14:32:54.632Z,24.22
2018-09-14T14:35:27.945Z,24.15
2018-09-14T14:37:56.052Z,24.04
2018-09-14T14:40:24.179Z,23.94
2018-09-14T14:42:52.313Z,23.96
2018-09-14T14:45:20.655Z,24.02
2018-09-14T14:47:48.940Z,24.11
2018-09-14T14:50:17.118Z,24.28
2018-09-14T14:52:45.227Z,24.50
2018-09-14T14:55:14.096Z,24.58
2018-09-14T14:57:42.328Z,24.62
2018-09-14T15:00:10.956Z,24.46
2018-09-14T15:02:40.552Z,24.19
2018-09-14T15:05:10.585Z,24.00
2018-09-14T15:07:38.768Z,24.04
2018-09-14T15:10:07.287Z,24.08
2018-09-14T15:12:35.749Z,23.90
2018-09-14T15:15:03.884Z,23.68
2018-09-14T15:17:32.019Z,23.61
2018-09-14T15:20:00.711Z,23.56
2018-09-14T15:22:29.496Z,23.59
2018-09-14T15:24:58.071Z,23.59
2018-09-14T15:27:26.197Z,23.71
2018-09-14T15:29:54.344Z,23.77
2018-09-14T15:32:22.490Z,23.70
2018-09-14T15:37:48.308Z,23.82
2018-09-14T15:40:16.784Z,23.71
2018-09-14T15:42:45.264Z,23.60
2018-09-14T15:45:13.546Z,23.38
2018-09-14T15:47:41.741Z,23.10
2018-09-14T15:50:10.409Z,22.96
2018-09-14T15:52:38.864Z,22.90
2018-09-14T15:55:07.004Z,22.82
2018-09-14T15:57:35.150Z,22.82
2018-09-14T16:00:03.772Z,22.96
2018-09-14T16:02:31.897Z,23.14
2018-09-14T16:05:00.339Z,23.32
2018-09-14T16:07:44.669Z,23.43
2018-09-14T16:10:13.671Z,23.33
2018-09-14T16:12:41.775Z,23.10
2018-09-14T16:15:10.220Z,22.86
2018-09-14T16:17:38.856Z,22.56
2018-09-14T16:20:07.085Z,22.34
2018-09-14T16:22:40.477Z,22.20
2018-09-14T16:25:08.664Z,22.16
2018-09-14T16:27:36.792Z,22.15
2018-09-14T16:30:05.355Z,22.10
2018-09-14T16:32:33.488Z,22.01
2018-09-14T16:35:01.665Z,21.89
2018-09-14T16:37:30.117Z,21.87
2018-09-14T16:39:58.253Z,21.82
2018-09-14T16:42:26.425Z,21.68
2018-09-14T16:44:54.546Z,21.60
2018-09-14T16:47:23.022Z,21.55
2018-09-14T16:49:51.681Z,21.50
2018-09-14T16:52:20.124Z,21.47
2018-09-14T16:54:48.576Z,21.39
2018-09-14T16:57:17.255Z,21.31
2018-09-14T16:59:45.356Z,21.22
2018-09-14T17:02:13.476Z,21.13
2018-09-14T17:04:41.585Z,21.12
2018-09-14T17:07:10.040Z,21.13
2018-09-14T17:09:38.180Z,21.14
2018-09-14T17:12:06.944Z,21.14
2018-09-14T17:14:35.384Z,21.11
2018-09-14T17:17:03.900Z,21.06
2018-09-14T17:19:32.275Z,20.98
2018-09-14T17:22:00.589Z,20.91
2018-09-14T17:24:28.693Z,20.84
2018-09-14T17:26:56.796Z,20.75
2018-09-14T17:29:24.898Z,20.67
2018-09-14T17:31:53.023Z,20.56
2018-09-14T17:34:21.320Z,20.48
2018-09-14T17:36:49.919Z,20.41
2018-09-14T17:39:18.406Z,20.31
2018-09-14T17:41:47.028Z,20.18
2018-09-14T17:44:15.140Z,20.08
2018-09-14T17:46:43.248Z,20.02
2018-09-14T17:49:11.680Z,19.95
2018-09-14T17:51:40.348Z,19.86
2018-09-14T17:54:08.451Z,19.76
2018-09-14T17:56:36.613Z,19.74
2018-09-14T17:59:04.977Z,19.70
2018-09-14T18:01:33.608Z,19.64
2018-09-14T18:04:02.059Z,19.54
2018-09-14T18:06:30.941Z,19.41
2018-09-14T18:09:00.372Z,19.26
2018-09-14T18:11:29.044Z,19.16
2018-09-14T18:13:57.153Z,19.09
2018-09-14T18:16:25.538Z,19.03
2018-09-14T18:18:53.848Z,18.97
2018-09-14T18:21:22.312Z,18.94
2018-09-14T18:23:50.420Z,18.90
2018-09-14T18:26:18.852Z,18.83
2018-09-14T18:28:46.977Z,18.72
2018-09-14T18:31:15.429Z,18.62
2018-09-14T18:33:43.548Z,18.55
2018-09-14T18:36:12.242Z,18.46
2018-09-14T18:38:40.836Z,18.40
2018-09-14T18:41:09.271Z,18.33
2018-09-14T18:43:37.391Z,18.26
2018-09-14T18:46:05.837Z,18.16
2018-09-14T18:48:34.297Z,18.10
2018-09-14T18:51:02.731Z,18.06
2018-09-14T18:53:31.400Z,18.01
2018-09-14T18:56:00.043Z,17.95
2018-09-14T18:58:28.181Z,17.93
2018-09-14T19:00:56.809Z,17.88
2018-09-14T19:03:24.900Z,17.87
2018-09-14T19:05:52.996Z,17.89
2018-09-14T19:08:21.432Z,17.94
2018-09-14T19:10:50.014Z,17.99
2018-09-14T19:13:18.530Z,18.04
2018-09-14T19:15:47.132Z,18.02
2018-09-14T19:18:15.588Z,18.00
2018-09-14T19:20:44.228Z,17.97
2018-09-14T19:23:12.668Z,17.94
2018-09-14T19:25:40.808Z,17.89
2018-09-14T19:28:09.403Z,17.84
2018-09-14T19:30:37.519Z,17.80
2018-09-14T19:33:05.970Z,17.78
2018-09-14T19:35:34.605Z,17.71
2018-09-14T19:38:03.972Z,17.78
2018-09-14T19:40:32.125Z,17.85
2018-09-14T19:43:00.756Z,17.94
2018-09-14T19:45:29.198Z,18.00
2018-09-14T19:47:57.824Z,18.06
2018-09-14T19:50:26.499Z,18.16
2018-09-14T19:52:56.741Z,18.27
2018-09-14T19:55:25.444Z,18.35
2018-09-14T19:57:53.553Z,18.38
2018-09-14T20:00:21.992Z,18.45
2018-09-14T20:02:50.163Z,18.54
2018-09-14T20:05:18.605Z,18.59
2018-09-14T20:07:47.209Z,18.60
2018-09-14T20:10:15.742Z,18.56
2018-09-14T20:12:43.840Z,18.45
2018-09-14T20:15:12.239Z,18.32
2018-09-14T20:17:40.721Z,18.24
2018-09-14T20:20:09.349Z,18.15
2018-09-14T20:22:37.779Z,18.02
2018-09-14T20:25:06.785Z,17.87
2018-09-14T20:27:35.528Z,17.76
2018-09-14T20:30:04.853Z,17.68
2018-09-14T20:32:33.200Z,17.62
2018-09-14T20:35:01.444Z,17.55
2018-09-14T20:37:29.567Z,17.48
2018-09-14T20:39:57.976Z,17.47
2018-09-14T20:42:26.640Z,17.52
2018-09-14T20:44:56.700Z,17.52
2018-09-14T20:47:25.176Z,17.47
2018-09-14T20:49:53.676Z,17.44
2018-09-14T20:52:22.129Z,17.38
2018-09-14T20:54:50.660Z,17.37
2018-09-14T20:57:19.088Z,17.48
2018-09-14T20:59:47.248Z,17.58
2018-09-14T21:02:15.703Z,17.63
2018-09-14T21:04:43.811Z,17.68
2018-09-14T21:07:12.457Z,17.65
2018-09-14T21:09:40.899Z,17.64
2018-09-14T21:12:09.356Z,17.64
2018-09-14T21:14:37.804Z,17.61
2018-09-14T21:17:06.567Z,17.56
2018-09-14T21:19:34.671Z,17.53
2018-09-14T21:22:03.784Z,17.46
2018-09-14T21:24:31.879Z,17.45
2018-09-14T21:27:00.283Z,17.42
2018-09-14T21:29:28.724Z,17.40
2018-09-14T21:31:56.839Z,17.36
2018-09-14T21:34:25.860Z,17.35
2018-09-14T21:36:54.320Z,17.32
2018-09-14T21:39:22.746Z,17.25
2018-09-14T21:41:50.871Z,17.20
2018-09-14T21:44:19.595Z,17.13
2018-09-14T21:46:47.726Z,17.11
2018-09-14T21:49:15.823Z,17.12
2018-09-14T21:51:44.415Z,17.17
2018-09-14T21:54:13.183Z,17.27
2018-09-14T21:56:41.727Z,17.37
2018-09-14T21:59:10.168Z,17.43
2018-09-14T22:01:38.448Z,17.47
2018-09-14T22:04:06.816Z,17.47
2018-09-14T22:06:35.292Z,17.50
2018-09-14T22:09:04.861Z,17.58
2018-09-14T22:11:33.067Z,17.70
2018-09-14T22:14:01.456Z,17.74
2018-09-14T22:16:29.573Z,17.72
2018-09-14T22:18:58.315Z,17.66
2018-09-14T22:21:26.957Z,17.56
2018-09-14T22:23:56.657Z,17.50
2018-09-14T22:26:25.088Z,17.50
2018-09-14T22:28:53.476Z,17.48
2018-09-14T22:31:21.900Z,17.47
2018-09-14T22:33:50.574Z,17.47
2018-09-14T22:36:19.036Z,17.44
2018-09-14T22:38:47.156Z,17.36
2018-09-14T22:41:15.928Z,17.27
2018-09-14T22:43:44.274Z,17.24
2018-09-14T22:46:13.148Z,17.20
2018-09-14T22:48:41.532Z,17.13
2018-09-14T22:51:09.945Z,17.11
2018-09-14T22:53:38.296Z,17.17
2018-09-14T22:56:07.047Z,17.15
2018-09-14T22:58:35.508Z,17.15
2018-09-14T23:01:09.344Z,17.10
2018-09-14T23:03:38.068Z,17.08
2018-09-14T23:06:06.283Z,17.07
2018-09-14T23:08:34.992Z,16.91
2018-09-14T23:11:03.488Z,16.80
2018-09-14T23:13:31.795Z,16.64
2018-09-14T23:16:01.172Z,16.49
2018-09-14T23:18:30.463Z,16.42
2018-09-14T23:21:00.210Z,16.28
2018-09-14T23:23:28.900Z,16.14
2018-09-14T23:25:59.005Z,16.03
2018-09-14T23:28:27.496Z,15.92
2018-09-14T23:30:57.051Z,15.92
2018-09-14T23:33:25.617Z,16.03
2018-09-14T23:35:53.913Z,16.04
2018-09-14T23:38:22.008Z,15.99
2018-09-14T23:40:50.448Z,15.96
2018-09-14T23:43:19.001Z,15.91
2018-09-14T23:45:47.991Z,15.84
2018-09-14T23:48:16.416Z,15.79
2018-09-14T23:50:44.787Z,15.74
2018-09-14T23:53:13.010Z,15.72
2018-09-14T23:55:41.964Z,15.71
2018-09-14T23:58:10.324Z,15.70
